sensor_id;sensor_type;location;lat;lon;timestamp;P1;durP1;ratioP1;P2;durP2;ratioP2
11394;SDS011;5753;54.402;10.220;2023-05-10T00:01:27;6.38;;;4.15;;
11394;SDS011;5753;54.402;10.220;2023-05-10T00:03:53;6.30;;;3.20;;
11394;SDS011;5753;54.402;10.220;2023-05-10T00:06:20;4.78;;;3.83;;
11394;SDS011;5753;54.402;10.220;2023-05-10T00:08:46;4.88;;;3.55;;
11394;SDS011;5753;54.402;10.220;2023-05-10T00:11:12;5.53;;;2.85;;
11394;SDS011;5753;54.402;10.220;2023-05-10T00:13:38;4.82;;;3.28;;
11394;SDS011;5753;54.402;10.220;2023-05-10T00:16:04;4.07;;;3.33;;
11394;SDS011;5753;54.402;10.220;2023-05-10T00:18:30;6.20;;;4.18;;
11394;SDS011;5753;54.402;10.220;2023-05-10T00:20:56;9.15;;;4.53;;
11394;SDS011;5753;54.402;10.220;2023-05-10T00:23:22;6.65;;;4.63;;
11394;SDS011;5753;54.402;10.220;2023-05-10T00:25:48;14.13;;;3.83;;
11394;SDS011;5753;54.402;10.220;2023-05-10T00:28:14;4.40;;;4.00;;
11394;SDS011;5753;54.402;10.220;2023-05-10T00:30:40;4.00;;;3.63;;
11394;SDS011;5753;54.402;10.220;2023-05-10T00:33:06;3.15;;;2.63;;
11394;SDS011;5753;54.402;10.220;2023-05-10T00:35:33;6.85;;;3.17;;
11394;SDS011;5753;54.402;10.220;2023-05-10T00:37:59;7.03;;;3.78;;
11394;SDS011;5753;54.402;10.220;2023-05-10T00:40:25;9.85;;;3.30;;
11394;SDS011;5753;54.402;10.220;2023-05-10T00:42:51;6.28;;;2.80;;
11394;SDS011;5753;54.402;10.220;2023-05-10T00:45:17;5.10;;;3.33;;
11394;SDS011;5753;54.402;10.220;2023-05-10T00:47:44;9.02;;;3.13;;
11394;SDS011;5753;54.402;10.220;2023-05-10T00:50:10;6.43;;;3.75;;
11394;SDS011;5753;54.402;10.220;2023-05-10T00:52:36;6.25;;;3.50;;
11394;SDS011;5753;54.402;10.220;2023-05-10T00:55:02;4.63;;;3.97;;
11394;SDS011;5753;54.402;10.220;2023-05-10T00:57:29;3.58;;;3.30;;
11394;SDS011;5753;54.402;10.220;2023-05-10T00:59:56;8.10;;;3.35;;
11394;SDS011;5753;54.402;10.220;2023-05-10T01:02:23;6.00;;;3.83;;
11394;SDS011;5753;54.402;10.220;2023-05-10T01:04:49;3.78;;;3.15;;
11394;SDS011;5753;54.402;10.220;2023-05-10T01:07:16;3.85;;;3.17;;
11394;SDS011;5753;54.402;10.220;2023-05-10T01:09:43;5.78;;;3.55;;
11394;SDS011;5753;54.402;10.220;2023-05-10T01:12:09;5.57;;;3.70;;
11394;SDS011;5753;54.402;10.220;2023-05-10T01:14:35;4.65;;;4.25;;
11394;SDS011;5753;54.402;10.220;2023-05-10T01:17:02;5.13;;;4.05;;
11394;SDS011;5753;54.402;10.220;2023-05-10T01:19:30;6.63;;;3.38;;
11394;SDS011;5753;54.402;10.220;2023-05-10T01:31:08;5.68;;;4.75;;
11394;SDS011;5753;54.402;10.220;2023-05-10T01:36:43;3.88;;;3.47;;
11394;SDS011;5753;54.402;10.220;2023-05-10T01:39:17;4.53;;;3.05;;
11394;SDS011;5753;54.402;10.220;2023-05-10T01:41:51;7.97;;;4.80;;
11394;SDS011;5753;54.402;10.220;2023-05-10T01:49:47;5.53;;;4.55;;
11394;SDS011;5753;54.402;10.220;2023-05-10T01:52:18;4.65;;;3.45;;
11394;SDS011;5753;54.402;10.220;2023-05-10T01:55:00;4.88;;;3.83;;
11394;SDS011;5753;54.402;10.220;2023-05-10T01:57:32;9.48;;;3.42;;
11394;SDS011;5753;54.402;10.220;2023-05-10T02:00:01;6.68;;;3.70;;
11394;SDS011;5753;54.402;10.220;2023-05-10T02:02:30;4.00;;;3.25;;
11394;SDS011;5753;54.402;10.220;2023-05-10T02:05:02;6.20;;;5.70;;
11394;SDS011;5753;54.402;10.220;2023-05-10T02:07:34;9.05;;;4.68;;
11394;SDS011;5753;54.402;10.220;2023-05-10T02:10:01;6.13;;;4.25;;
11394;SDS011;5753;54.402;10.220;2023-05-10T02:12:32;4.55;;;4.15;;
11394;SDS011;5753;54.402;10.220;2023-05-10T02:15:02;3.83;;;3.05;;
11394;SDS011;5753;54.402;10.220;2023-05-10T02:17:30;8.07;;;3.83;;
11394;SDS011;5753;54.402;10.220;2023-05-10T02:19:57;4.78;;;4.43;;
11394;SDS011;5753;54.402;10.220;2023-05-10T02:22:26;5.95;;;4.35;;
11394;SDS011;5753;54.402;10.220;2023-05-10T02:24:54;4.95;;;4.55;;
11394;SDS011;5753;54.402;10.220;2023-05-10T02:27:22;7.90;;;4.38;;
11394;SDS011;5753;54.402;10.220;2023-05-10T02:29:51;7.38;;;3.25;;
11394;SDS011;5753;54.402;10.220;2023-05-10T02:32:18;9.88;;;3.90;;
11394;SDS011;5753;54.402;10.220;2023-05-10T02:34:46;8.65;;;3.45;;
11394;SDS011;5753;54.402;10.220;2023-05-10T02:37:16;8.95;;;3.05;;
11394;SDS011;5753;54.402;10.220;2023-05-10T02:39:49;6.88;;;3.92;;
11394;SDS011;5753;54.402;10.220;2023-05-10T02:42:18;7.30;;;3.78;;
11394;SDS011;5753;54.402;10.220;2023-05-10T02:44:47;7.88;;;4.13;;
11394;SDS011;5753;54.402;10.220;2023-05-10T02:47:15;7.40;;;4.00;;
11394;SDS011;5753;54.402;10.220;2023-05-10T02:49:43;9.35;;;4.70;;
11394;SDS011;5753;54.402;10.220;2023-05-10T02:52:09;5.75;;;4.38;;
11394;SDS011;5753;54.402;10.220;2023-05-10T02:54:44;3.28;;;2.90;;
11394;SDS011;5753;54.402;10.220;2023-05-10T02:57:15;6.07;;;3.28;;
11394;SDS011;5753;54.402;10.220;2023-05-10T02:59:46;6.50;;;4.72;;
11394;SDS011;5753;54.402;10.220;2023-05-10T03:02:12;5.05;;;3.53;;
11394;SDS011;5753;54.402;10.220;2023-05-10T03:04:39;4.43;;;3.22;;
11394;SDS011;5753;54.402;10.220;2023-05-10T03:07:05;10.23;;;4.10;;
11394;SDS011;5753;54.402;10.220;2023-05-10T03:09:32;7.43;;;4.65;;
11394;SDS011;5753;54.402;10.220;2023-05-10T03:14:57;6.03;;;3.72;;
11394;SDS011;5753;54.402;10.220;2023-05-10T03:20:22;15.95;;;4.63;;
11394;SDS011;5753;54.402;10.220;2023-05-10T03:22:53;10.23;;;5.90;;
11394;SDS011;5753;54.402;10.220;2023-05-10T03:25:26;4.85;;;4.22;;
11394;SDS011;5753;54.402;10.220;2023-05-10T03:27:53;5.28;;;4.05;;
11394;SDS011;5753;54.402;10.220;2023-05-10T03:30:21;5.57;;;3.55;;
11394;SDS011;5753;54.402;10.220;2023-05-10T03:32:49;4.00;;;3.70;;
11394;SDS011;5753;54.402;10.220;2023-05-10T03:35:15;3.83;;;3.42;;
11394;SDS011;5753;54.402;10.220;2023-05-10T03:37:41;5.50;;;5.00;;
11394;SDS011;5753;54.402;10.220;2023-05-10T03:40:07;14.63;;;4.72;;
11394;SDS011;5753;54.402;10.220;2023-05-10T03:42:34;5.93;;;4.45;;
11394;SDS011;5753;54.402;10.220;2023-05-10T03:45:00;5.60;;;4.47;;
11394;SDS011;5753;54.402;10.220;2023-05-10T03:47:26;6.60;;;4.05;;
11394;SDS011;5753;54.402;10.220;2023-05-10T03:49:54;4.57;;;4.15;;
11394;SDS011;5753;54.402;10.220;2023-05-10T03:52:20;4.82;;;3.85;;
11394;SDS011;5753;54.402;10.220;2023-05-10T03:54:46;8.98;;;5.03;;
11394;SDS011;5753;54.402;10.220;2023-05-10T03:57:12;5.25;;;4.72;;
11394;SDS011;5753;54.402;10.220;2023-05-10T03:59:38;8.57;;;4.40;;
11394;SDS011;5753;54.402;10.220;2023-05-10T04:02:04;9.88;;;3.85;;
11394;SDS011;5753;54.402;10.220;2023-05-10T04:04:30;5.25;;;3.75;;
11394;SDS011;5753;54.402;10.220;2023-05-10T04:06:56;7.47;;;4.72;;
11394;SDS011;5753;54.402;10.220;2023-05-10T04:09:22;5.32;;;4.88;;
11394;SDS011;5753;54.402;10.220;2023-05-10T04:11:48;4.60;;;4.10;;
11394;SDS011;5753;54.402;10.220;2023-05-10T04:14:15;5.18;;;4.30;;
11394;SDS011;5753;54.402;10.220;2023-05-10T04:16:41;5.63;;;3.90;;
11394;SDS011;5753;54.402;10.220;2023-05-10T04:19:07;7.45;;;4.43;;
11394;SDS011;5753;54.402;10.220;2023-05-10T04:21:33;5.85;;;4.90;;
11394;SDS011;5753;54.402;10.220;2023-05-10T04:23:59;4.25;;;3.55;;
11394;SDS011;5753;54.402;10.220;2023-05-10T04:26:25;6.28;;;4.13;;
11394;SDS011;5753;54.402;10.220;2023-05-10T04:28:51;5.95;;;4.00;;
11394;SDS011;5753;54.402;10.220;2023-05-10T04:31:17;4.40;;;3.60;;
11394;SDS011;5753;54.402;10.220;2023-05-10T04:33:43;5.10;;;4.05;;
11394;SDS011;5753;54.402;10.220;2023-05-10T04:36:09;9.23;;;5.90;;
11394;SDS011;5753;54.402;10.220;2023-05-10T04:38:36;8.68;;;4.57;;
11394;SDS011;5753;54.402;10.220;2023-05-10T04:41:08;4.15;;;3.75;;
11394;SDS011;5753;54.402;10.220;2023-05-10T04:43:36;5.05;;;3.97;;
11394;SDS011;5753;54.402;10.220;2023-05-10T04:46:02;6.13;;;4.53;;
11394;SDS011;5753;54.402;10.220;2023-05-10T04:48:29;6.72;;;4.20;;
11394;SDS011;5753;54.402;10.220;2023-05-10T04:50:55;5.90;;;4.00;;
11394;SDS011;5753;54.402;10.220;2023-05-10T04:53:21;10.15;;;5.30;;
11394;SDS011;5753;54.402;10.220;2023-05-10T04:55:47;7.65;;;4.18;;
11394;SDS011;5753;54.402;10.220;2023-05-10T04:58:14;6.53;;;5.53;;
11394;SDS011;5753;54.402;10.220;2023-05-10T05:00:40;6.00;;;3.67;;
11394;SDS011;5753;54.402;10.220;2023-05-10T05:03:06;4.47;;;4.18;;
11394;SDS011;5753;54.402;10.220;2023-05-10T05:05:32;7.28;;;5.18;;
11394;SDS011;5753;54.402;10.220;2023-05-10T05:07:58;3.85;;;3.53;;
11394;SDS011;5753;54.402;10.220;2023-05-10T05:10:25;6.00;;;4.30;;
11394;SDS011;5753;54.402;10.220;2023-05-10T05:12:51;8.18;;;5.55;;
11394;SDS011;5753;54.402;10.220;2023-05-10T05:15:17;7.55;;;3.83;;
11394;SDS011;5753;54.402;10.220;2023-05-10T05:17:43;4.97;;;4.20;;
11394;SDS011;5753;54.402;10.220;2023-05-10T05:20:09;6.25;;;3.60;;
11394;SDS011;5753;54.402;10.220;2023-05-10T05:22:36;5.47;;;4.00;;
11394;SDS011;5753;54.402;10.220;2023-05-10T05:25:03;9.23;;;5.25;;
11394;SDS011;5753;54.402;10.220;2023-05-10T05:27:29;6.22;;;5.53;;
11394;SDS011;5753;54.402;10.220;2023-05-10T05:29:56;12.88;;;4.88;;
11394;SDS011;5753;54.402;10.220;2023-05-10T05:32:22;4.97;;;4.15;;
11394;SDS011;5753;54.402;10.220;2023-05-10T05:34:49;11.68;;;4.78;;
11394;SDS011;5753;54.402;10.220;2023-05-10T05:37:16;7.10;;;4.13;;
11394;SDS011;5753;54.402;10.220;2023-05-10T05:39:44;4.47;;;4.07;;
11394;SDS011;5753;54.402;10.220;2023-05-10T05:42:10;4.57;;;3.90;;
11394;SDS011;5753;54.402;10.220;2023-05-10T05:44:38;7.13;;;5.13;;
11394;SDS011;5753;54.402;10.220;2023-05-10T05:47:04;9.23;;;4.63;;
11394;SDS011;5753;54.402;10.220;2023-05-10T05:49:31;5.60;;;3.92;;
11394;SDS011;5753;54.402;10.220;2023-05-10T05:52:03;7.25;;;5.55;;
11394;SDS011;5753;54.402;10.220;2023-05-10T05:54:30;12.68;;;7.78;;
11394;SDS011;5753;54.402;10.220;2023-05-10T05:56:57;7.88;;;4.43;;
11394;SDS011;5753;54.402;10.220;2023-05-10T05:59:23;4.85;;;4.05;;
11394;SDS011;5753;54.402;10.220;2023-05-10T06:01:50;5.57;;;4.95;;
11394;SDS011;5753;54.402;10.220;2023-05-10T06:04:16;4.00;;;3.65;;
11394;SDS011;5753;54.402;10.220;2023-05-10T06:06:43;8.32;;;4.32;;
11394;SDS011;5753;54.402;10.220;2023-05-10T06:09:09;5.03;;;4.53;;
11394;SDS011;5753;54.402;10.220;2023-05-10T06:11:36;4.80;;;4.38;;
11394;SDS011;5753;54.402;10.220;2023-05-10T06:14:03;4.47;;;4.07;;
11394;SDS011;5753;54.402;10.220;2023-05-10T06:16:29;7.43;;;5.22;;
11394;SDS011;5753;54.402;10.220;2023-05-10T06:18:56;7.68;;;5.35;;
11394;SDS011;5753;54.402;10.220;2023-05-10T06:21:22;3.47;;;3.08;;
11394;SDS011;5753;54.402;10.220;2023-05-10T06:23:48;5.95;;;4.88;;
11394;SDS011;5753;54.402;10.220;2023-05-10T06:26:14;5.90;;;4.95;;
11394;SDS011;5753;54.402;10.220;2023-05-10T06:28:40;6.38;;;5.78;;
11394;SDS011;5753;54.402;10.220;2023-05-10T06:31:06;8.23;;;4.40;;
11394;SDS011;5753;54.402;10.220;2023-05-10T06:33:33;6.45;;;4.20;;
11394;SDS011;5753;54.402;10.220;2023-05-10T06:35:59;4.65;;;4.18;;
11394;SDS011;5753;54.402;10.220;2023-05-10T06:38:25;6.43;;;4.18;;
11394;SDS011;5753;54.402;10.220;2023-05-10T06:40:52;6.22;;;3.40;;
11394;SDS011;5753;54.402;10.220;2023-05-10T06:43:18;7.07;;;4.85;;
11394;SDS011;5753;54.402;10.220;2023-05-10T06:45:44;5.97;;;4.43;;
11394;SDS011;5753;54.402;10.220;2023-05-10T06:48:11;5.40;;;4.90;;
11394;SDS011;5753;54.402;10.220;2023-05-10T06:50:37;6.45;;;5.15;;
11394;SDS011;5753;54.402;10.220;2023-05-10T06:53:03;6.80;;;4.80;;
11394;SDS011;5753;54.402;10.220;2023-05-10T06:55:29;7.20;;;5.45;;
11394;SDS011;5753;54.402;10.220;2023-05-10T06:57:55;5.18;;;4.28;;
11394;SDS011;5753;54.402;10.220;2023-05-10T07:00:21;5.22;;;3.67;;
11394;SDS011;5753;54.402;10.220;2023-05-10T07:02:47;8.85;;;4.57;;
11394;SDS011;5753;54.402;10.220;2023-05-10T07:05:13;16.17;;;5.30;;
11394;SDS011;5753;54.402;10.220;2023-05-10T07:07:40;5.90;;;3.70;;
11394;SDS011;5753;54.402;10.220;2023-05-10T07:10:07;11.05;;;5.95;;
11394;SDS011;5753;54.402;10.220;2023-05-10T07:12:33;5.50;;;4.65;;
11394;SDS011;5753;54.402;10.220;2023-05-10T07:14:59;6.13;;;4.70;;
11394;SDS011;5753;54.402;10.220;2023-05-10T07:17:26;5.82;;;5.10;;
11394;SDS011;5753;54.402;10.220;2023-05-10T07:19:53;5.95;;;3.50;;
11394;SDS011;5753;54.402;10.220;2023-05-10T07:22:19;4.97;;;4.40;;
11394;SDS011;5753;54.402;10.220;2023-05-10T07:24:45;5.80;;;4.30;;
11394;SDS011;5753;54.402;10.220;2023-05-10T07:27:11;6.75;;;5.43;;
11394;SDS011;5753;54.402;10.220;2023-05-10T07:29:38;7.15;;;3.67;;
11394;SDS011;5753;54.402;10.220;2023-05-10T07:32:04;5.93;;;5.32;;
11394;SDS011;5753;54.402;10.220;2023-05-10T07:34:30;4.90;;;4.15;;
11394;SDS011;5753;54.402;10.220;2023-05-10T07:36:59;6.10;;;4.78;;
11394;SDS011;5753;54.402;10.220;2023-05-10T07:39:26;6.65;;;4.30;;
11394;SDS011;5753;54.402;10.220;2023-05-10T07:41:53;8.80;;;4.88;;
11394;SDS011;5753;54.402;10.220;2023-05-10T07:44:20;6.25;;;4.55;;
11394;SDS011;5753;54.402;10.220;2023-05-10T07:46:46;5.15;;;3.97;;
11394;SDS011;5753;54.402;10.220;2023-05-10T07:49:13;4.78;;;4.28;;
11394;SDS011;5753;54.402;10.220;2023-05-10T07:51:39;7.25;;;4.03;;
11394;SDS011;5753;54.402;10.220;2023-05-10T07:54:07;4.30;;;3.97;;
11394;SDS011;5753;54.402;10.220;2023-05-10T07:56:33;4.90;;;4.07;;
11394;SDS011;5753;54.402;10.220;2023-05-10T07:58:59;4.78;;;4.38;;
11394;SDS011;5753;54.402;10.220;2023-05-10T08:01:26;5.07;;;4.13;;
11394;SDS011;5753;54.402;10.220;2023-05-10T08:03:56;5.03;;;4.47;;
11394;SDS011;5753;54.402;10.220;2023-05-10T08:06:22;5.68;;;4.65;;
11394;SDS011;5753;54.402;10.220;2023-05-10T08:08:50;11.73;;;4.05;;
11394;SDS011;5753;54.402;10.220;2023-05-10T08:11:18;4.10;;;3.58;;
11394;SDS011;5753;54.402;10.220;2023-05-10T08:13:45;5.38;;;4.47;;
11394;SDS011;5753;54.402;10.220;2023-05-10T08:16:12;4.25;;;3.78;;
11394;SDS011;5753;54.402;10.220;2023-05-10T08:18:38;5.18;;;4.68;;
11394;SDS011;5753;54.402;10.220;2023-05-10T08:21:05;5.40;;;4.18;;
11394;SDS011;5753;54.402;10.220;2023-05-10T08:23:32;7.68;;;5.65;;
11394;SDS011;5753;54.402;10.220;2023-05-10T08:25:58;7.63;;;4.65;;
11394;SDS011;5753;54.402;10.220;2023-05-10T08:28:25;5.47;;;4.00;;
11394;SDS011;5753;54.402;10.220;2023-05-10T08:30:51;15.35;;;3.80;;
11394;SDS011;5753;54.402;10.220;2023-05-10T08:33:17;4.88;;;3.72;;
11394;SDS011;5753;54.402;10.220;2023-05-10T08:35:44;4.18;;;3.78;;
11394;SDS011;5753;54.402;10.220;2023-05-10T08:38:10;7.28;;;5.45;;
11394;SDS011;5753;54.402;10.220;2023-05-10T08:40:37;5.10;;;4.28;;
11394;SDS011;5753;54.402;10.220;2023-05-10T08:43:07;5.68;;;4.75;;
11394;SDS011;5753;54.402;10.220;2023-05-10T08:45:37;8.45;;;5.90;;
11394;SDS011;5753;54.402;10.220;2023-05-10T08:48:05;5.55;;;4.45;;
11394;SDS011;5753;54.402;10.220;2023-05-10T08:50:34;6.18;;;3.15;;
11394;SDS011;5753;54.402;10.220;2023-05-10T08:53:05;5.47;;;4.93;;
11394;SDS011;5753;54.402;10.220;2023-05-10T08:55:35;7.32;;;3.90;;
11394;SDS011;5753;54.402;10.220;2023-05-10T08:58:03;5.10;;;4.50;;
11394;SDS011;5753;54.402;10.220;2023-05-10T09:00:30;5.28;;;4.40;;
11394;SDS011;5753;54.402;10.220;2023-05-10T09:02:57;7.22;;;4.70;;
11394;SDS011;5753;54.402;10.220;2023-05-10T09:05:24;5.68;;;5.03;;
11394;SDS011;5753;54.402;10.220;2023-05-10T09:07:50;5.53;;;4.32;;
11394;SDS011;5753;54.402;10.220;2023-05-10T09:10:17;9.60;;;4.72;;
11394;SDS011;5753;54.402;10.220;2023-05-10T09:12:44;4.57;;;3.83;;
11394;SDS011;5753;54.402;10.220;2023-05-10T09:15:12;34.33;;;5.28;;
11394;SDS011;5753;54.402;10.220;2023-05-10T09:17:41;7.88;;;4.75;;
11394;SDS011;5753;54.402;10.220;2023-05-10T09:20:08;6.30;;;5.30;;
11394;SDS011;5753;54.402;10.220;2023-05-10T09:22:35;6.80;;;4.95;;
11394;SDS011;5753;54.402;10.220;2023-05-10T09:25:06;5.68;;;3.63;;
11394;SDS011;5753;54.402;10.220;2023-05-10T09:27:33;5.65;;;4.03;;
11394;SDS011;5753;54.402;10.220;2023-05-10T09:30:00;5.57;;;5.10;;
11394;SDS011;5753;54.402;10.220;2023-05-10T09:32:40;5.15;;;4.68;;
11394;SDS011;5753;54.402;10.220;2023-05-10T09:35:14;7.45;;;4.97;;
11394;SDS011;5753;54.402;10.220;2023-05-10T09:37:43;8.98;;;4.25;;
11394;SDS011;5753;54.402;10.220;2023-05-10T09:40:13;4.60;;;4.20;;
11394;SDS011;5753;54.402;10.220;2023-05-10T09:42:51;5.70;;;4.78;;
11394;SDS011;5753;54.402;10.220;2023-05-10T09:45:23;6.22;;;4.10;;
11394;SDS011;5753;54.402;10.220;2023-05-10T09:47:51;6.43;;;4.97;;
11394;SDS011;5753;54.402;10.220;2023-05-10T09:50:18;8.20;;;4.60;;
11394;SDS011;5753;54.402;10.220;2023-05-10T09:55:20;7.35;;;5.80;;
11394;SDS011;5753;54.402;10.220;2023-05-10T09:58:00;5.57;;;3.63;;
11394;SDS011;5753;54.402;10.220;2023-05-10T10:00:27;4.78;;;4.32;;
11394;SDS011;5753;54.402;10.220;2023-05-10T10:02:59;6.15;;;4.07;;
11394;SDS011;5753;54.402;10.220;2023-05-10T10:05:29;6.10;;;4.20;;
11394;SDS011;5753;54.402;10.220;2023-05-10T10:07:57;5.07;;;4.68;;
11394;SDS011;5753;54.402;10.220;2023-05-10T10:10:24;5.18;;;4.45;;
11394;SDS011;5753;54.402;10.220;2023-05-10T10:12:51;7.90;;;4.85;;
11394;SDS011;5753;54.402;10.220;2023-05-10T10:15:17;5.75;;;4.40;;
11394;SDS011;5753;54.402;10.220;2023-05-10T10:17:45;4.93;;;4.22;;
11394;SDS011;5753;54.402;10.220;2023-05-10T10:20:11;5.22;;;4.60;;
11394;SDS011;5753;54.402;10.220;2023-05-10T10:22:38;5.13;;;4.07;;
11394;SDS011;5753;54.402;10.220;2023-05-10T10:25:04;4.75;;;4.22;;
11394;SDS011;5753;54.402;10.220;2023-05-10T10:30:52;4.90;;;4.47;;
11394;SDS011;5753;54.402;10.220;2023-05-10T10:36:19;6.20;;;4.75;;
11394;SDS011;5753;54.402;10.220;2023-05-10T10:47:36;7.82;;;4.50;;
11394;SDS011;5753;54.402;10.220;2023-05-10T10:49:43;8.45;;;5.15;;
11394;SDS011;5753;54.402;10.220;2023-05-10T10:52:23;6.05;;;4.45;;
11394;SDS011;5753;54.402;10.220;2023-05-10T10:55:11;6.82;;;4.82;;
11394;SDS011;5753;54.402;10.220;2023-05-10T11:05:41;5.30;;;4.78;;
11394;SDS011;5753;54.402;10.220;2023-05-10T11:10:51;5.03;;;4.00;;
11394;SDS011;5753;54.402;10.220;2023-05-10T11:16:12;7.22;;;6.47;;
11394;SDS011;5753;54.402;10.220;2023-05-10T11:18:39;5.20;;;4.22;;
11394;SDS011;5753;54.402;10.220;2023-05-10T11:21:07;4.53;;;4.13;;
11394;SDS011;5753;54.402;10.220;2023-05-10T11:23:54;5.30;;;4.82;;
11394;SDS011;5753;54.402;10.220;2023-05-10T11:26:22;5.72;;;4.55;;
11394;SDS011;5753;54.402;10.220;2023-05-10T11:28:50;5.45;;;4.57;;
11394;SDS011;5753;54.402;10.220;2023-05-10T11:31:20;5.18;;;4.70;;
11394;SDS011;5753;54.402;10.220;2023-05-10T11:33:47;5.65;;;5.15;;
11394;SDS011;5753;54.402;10.220;2023-05-10T11:36:18;9.20;;;4.70;;
11394;SDS011;5753;54.402;10.220;2023-05-10T11:38:45;6.18;;;5.18;;
11394;SDS011;5753;54.402;10.220;2023-05-10T11:41:12;5.03;;;4.25;;
11394;SDS011;5753;54.402;10.220;2023-05-10T11:43:39;5.70;;;4.10;;
11394;SDS011;5753;54.402;10.220;2023-05-10T11:46:12;5.07;;;4.57;;
11394;SDS011;5753;54.402;10.220;2023-05-10T11:48:39;4.32;;;3.75;;
11394;SDS011;5753;54.402;10.220;2023-05-10T11:51:06;15.43;;;4.85;;
11394;SDS011;5753;54.402;10.220;2023-05-10T11:53:33;9.88;;;5.88;;
11394;SDS011;5753;54.402;10.220;2023-05-10T11:56:09;10.55;;;4.70;;
11394;SDS011;5753;54.402;10.220;2023-05-10T11:58:36;12.88;;;4.90;;
11394;SDS011;5753;54.402;10.220;2023-05-10T12:01:04;8.18;;;5.80;;
11394;SDS011;5753;54.402;10.220;2023-05-10T12:03:31;4.43;;;4.03;;
11394;SDS011;5753;54.402;10.220;2023-05-10T12:05:58;5.25;;;3.78;;
11394;SDS011;5753;54.402;10.220;2023-05-10T12:08:26;11.48;;;5.80;;
11394;SDS011;5753;54.402;10.220;2023-05-10T12:10:53;6.55;;;4.25;;
11394;SDS011;5753;54.402;10.220;2023-05-10T12:13:30;4.70;;;4.30;;
11394;SDS011;5753;54.402;10.220;2023-05-10T12:15:59;5.32;;;4.65;;
11394;SDS011;5753;54.402;10.220;2023-05-10T12:18:38;6.82;;;4.60;;
11394;SDS011;5753;54.402;10.220;2023-05-10T12:21:05;5.47;;;4.97;;
11394;SDS011;5753;54.402;10.220;2023-05-10T12:23:31;6.03;;;3.97;;
11394;SDS011;5753;54.402;10.220;2023-05-10T12:26:02;6.38;;;4.10;;
11394;SDS011;5753;54.402;10.220;2023-05-10T12:28:32;5.65;;;4.75;;
11394;SDS011;5753;54.402;10.220;2023-05-10T12:31:01;7.80;;;5.07;;
11394;SDS011;5753;54.402;10.220;2023-05-10T12:33:34;7.50;;;5.97;;
11394;SDS011;5753;54.402;10.220;2023-05-10T12:38:40;9.35;;;4.00;;
11394;SDS011;5753;54.402;10.220;2023-05-10T12:41:14;6.65;;;5.70;;
11394;SDS011;5753;54.402;10.220;2023-05-10T12:43:42;11.23;;;6.20;;
11394;SDS011;5753;54.402;10.220;2023-05-10T12:46:12;5.70;;;4.43;;
11394;SDS011;5753;54.402;10.220;2023-05-10T12:48:42;6.38;;;4.20;;
11394;SDS011;5753;54.402;10.220;2023-05-10T12:51:09;4.82;;;4.43;;
11394;SDS011;5753;54.402;10.220;2023-05-10T12:53:38;10.30;;;5.50;;
11394;SDS011;5753;54.402;10.220;2023-05-10T12:56:05;7.00;;;6.13;;
11394;SDS011;5753;54.402;10.220;2023-05-10T12:58:31;7.07;;;6.35;;
11394;SDS011;5753;54.402;10.220;2023-05-10T13:00:57;8.13;;;6.25;;
11394;SDS011;5753;54.402;10.220;2023-05-10T13:03:24;11.65;;;8.05;;
11394;SDS011;5753;54.402;10.220;2023-05-10T13:05:50;13.95;;;8.05;;
11394;SDS011;5753;54.402;10.220;2023-05-10T13:08:16;8.20;;;7.20;;
11394;SDS011;5753;54.402;10.220;2023-05-10T13:10:42;10.38;;;6.63;;
11394;SDS011;5753;54.402;10.220;2023-05-10T13:13:08;9.05;;;7.32;;
11394;SDS011;5753;54.402;10.220;2023-05-10T13:15:34;10.10;;;8.27;;
11394;SDS011;5753;54.402;10.220;2023-05-10T13:18:01;12.55;;;8.68;;
11394;SDS011;5753;54.402;10.220;2023-05-10T13:20:27;13.88;;;11.05;;
11394;SDS011;5753;54.402;10.220;2023-05-10T13:22:53;13.63;;;11.02;;
11394;SDS011;5753;54.402;10.220;2023-05-10T13:25:19;13.35;;;9.93;;
11394;SDS011;5753;54.402;10.220;2023-05-10T13:27:45;13.68;;;10.68;;
11394;SDS011;5753;54.402;10.220;2023-05-10T13:30:11;11.02;;;9.93;;
11394;SDS011;5753;54.402;10.220;2023-05-10T13:32:38;11.88;;;9.18;;
11394;SDS011;5753;54.402;10.220;2023-05-10T13:35:04;23.33;;;11.75;;
11394;SDS011;5753;54.402;10.220;2023-05-10T13:37:31;11.50;;;9.98;;
11394;SDS011;5753;54.402;10.220;2023-05-10T13:40:00;15.43;;;10.93;;
11394;SDS011;5753;54.402;10.220;2023-05-10T13:42:26;18.55;;;12.15;;
11394;SDS011;5753;54.402;10.220;2023-05-10T13:44:53;14.50;;;10.32;;
11394;SDS011;5753;54.402;10.220;2023-05-10T13:47:19;16.73;;;12.77;;
11394;SDS011;5753;54.402;10.220;2023-05-10T13:49:46;13.05;;;10.95;;
11394;SDS011;5753;54.402;10.220;2023-05-10T13:52:12;14.25;;;11.05;;
11394;SDS011;5753;54.402;10.220;2023-05-10T13:54:38;12.40;;;10.98;;
11394;SDS011;5753;54.402;10.220;2023-05-10T13:57:05;12.95;;;11.52;;
11394;SDS011;5753;54.402;10.220;2023-05-10T13:59:31;13.27;;;10.63;;
11394;SDS011;5753;54.402;10.220;2023-05-10T14:01:58;14.63;;;11.65;;
11394;SDS011;5753;54.402;10.220;2023-05-10T14:04:24;18.08;;;11.10;;
11394;SDS011;5753;54.402;10.220;2023-05-10T14:06:51;16.65;;;13.13;;
11394;SDS011;5753;54.402;10.220;2023-05-10T14:09:17;15.13;;;11.15;;
11394;SDS011;5753;54.402;10.220;2023-05-10T14:11:44;12.18;;;10.30;;
11394;SDS011;5753;54.402;10.220;2023-05-10T14:14:10;13.80;;;11.65;;
11394;SDS011;5753;54.402;10.220;2023-05-10T14:16:37;12.43;;;10.70;;
11394;SDS011;5753;54.402;10.220;2023-05-10T14:19:07;12.85;;;9.80;;
11394;SDS011;5753;54.402;10.220;2023-05-10T14:21:34;12.20;;;10.75;;
11394;SDS011;5753;54.402;10.220;2023-05-10T14:24:00;15.05;;;12.02;;
11394;SDS011;5753;54.402;10.220;2023-05-10T14:26:26;13.07;;;11.13;;
11394;SDS011;5753;54.402;10.220;2023-05-10T14:28:52;19.42;;;11.35;;
11394;SDS011;5753;54.402;10.220;2023-05-10T14:31:18;11.02;;;9.45;;
11394;SDS011;5753;54.402;10.220;2023-05-10T14:33:45;13.60;;;11.38;;
11394;SDS011;5753;54.402;10.220;2023-05-10T14:36:12;13.52;;;9.60;;
11394;SDS011;5753;54.402;10.220;2023-05-10T14:38:38;11.00;;;9.75;;
11394;SDS011;5753;54.402;10.220;2023-05-10T14:41:05;11.80;;;10.45;;
11394;SDS011;5753;54.402;10.220;2023-05-10T14:43:31;20.17;;;11.18;;
11394;SDS011;5753;54.402;10.220;2023-05-10T14:45:57;13.98;;;11.38;;
11394;SDS011;5753;54.402;10.220;2023-05-10T14:48:23;13.23;;;11.65;;
11394;SDS011;5753;54.402;10.220;2023-05-10T14:50:49;12.05;;;10.85;;
11394;SDS011;5753;54.402;10.220;2023-05-10T14:53:17;11.15;;;9.23;;
11394;SDS011;5753;54.402;10.220;2023-05-10T14:55:43;14.20;;;10.55;;
11394;SDS011;5753;54.402;10.220;2023-05-10T14:58:09;15.55;;;11.32;;
11394;SDS011;5753;54.402;10.220;2023-05-10T15:00:35;14.05;;;10.57;;
11394;SDS011;5753;54.402;10.220;2023-05-10T15:03:01;13.60;;;9.35;;
11394;SDS011;5753;54.402;10.220;2023-05-10T15:05:28;12.45;;;11.15;;
11394;SDS011;5753;54.402;10.220;2023-05-10T15:07:54;20.77;;;11.90;;
11394;SDS011;5753;54.402;10.220;2023-05-10T15:10:20;12.68;;;9.30;;
11394;SDS011;5753;54.402;10.220;2023-05-10T15:12:47;12.25;;;9.80;;
11394;SDS011;5753;54.402;10.220;2023-05-10T15:15:13;12.50;;;10.65;;
11394;SDS011;5753;54.402;10.220;2023-05-10T15:17:39;10.75;;;9.13;;
11394;SDS011;5753;54.402;10.220;2023-05-10T15:20:06;11.60;;;10.48;;
11394;SDS011;5753;54.402;10.220;2023-05-10T15:22:32;14.60;;;10.18;;
11394;SDS011;5753;54.402;10.220;2023-05-10T15:24:58;12.45;;;11.13;;
11394;SDS011;5753;54.402;10.220;2023-05-10T15:27:25;12.80;;;9.93;;
11394;SDS011;5753;54.402;10.220;2023-05-10T15:29:51;12.68;;;10.55;;
11394;SDS011;5753;54.402;10.220;2023-05-10T15:32:17;12.82;;;10.70;;
11394;SDS011;5753;54.402;10.220;2023-05-10T15:34:44;10.13;;;8.98;;
11394;SDS011;5753;54.402;10.220;2023-05-10T15:37:10;14.23;;;11.55;;
11394;SDS011;5753;54.402;10.220;2023-05-10T15:39:36;11.02;;;9.93;;
11394;SDS011;5753;54.402;10.220;2023-05-10T15:42:02;14.82;;;9.93;;